»·PEaware :: N183TW KBUR-KLAS

N183TW :: KBUR-KLAS

FLIGHT INFORMATION

Flight Status: Arrived
Operator: Privately registered:
United States
More flights under this callsign
Pilot: Jr O. (24093)
Aircraft: CESSNA 172 SKYHAWK
(C172)
More flights by this aircraft type
Origin: KBUR Bob Hope-Burbank
United States
Destination: KLAS McCarran Intl
United States
More flights between these airports :: More routes between these airports
Route: +VNY3 DAG CRESO4
File this flight plan on PilotEdge
Remarks: I5 rating
Altitude:
(Current/Filed)
9,000ft
Speed:
(Current/Filed)
120kts
Departed: 14-Apr-19 03:22 PM
Arrived: 14-Apr-19 05:41 PM
Distance/Time
Traveled:
194nm/2:19
Distance/Time
To Go:
Arrived

Flight Plot

Page will automatically refresh every two minutes.

Flight plan parsing failed; only flown route is shown


Map Options




Map Legend


Flown Route
Filed Route
Departure Airport
Arrival Airport
Navaid (VOR, NDB)
Fix

Horizontal Profiles

Position Reports

Time Latitude Longitude Heading Altitude Ground
Speed
14-Apr-19 14:45 34.210739 -118.357947 257 758ft 0kts
14-Apr-19 14:46 34.210739 -118.357947 257 758ft 0kts
14-Apr-19 14:47 34.210739 -118.357947 257 758ft 0kts
14-Apr-19 14:48 34.210739 -118.357947 257 758ft 0kts
14-Apr-19 14:49 34.210739 -118.357947 257 758ft 0kts
14-Apr-19 14:50 34.210739 -118.357947 257 758ft 0kts
14-Apr-19 14:51 34.210739 -118.357947 257 758ft 0kts
14-Apr-19 14:52 34.210739 -118.357947 257 758ft 0kts
14-Apr-19 14:53 34.210739 -118.357947 257 758ft 0kts
14-Apr-19 14:54 34.210739 -118.357947 257 758ft 0kts
14-Apr-19 14:55 34.210739 -118.357947 257 758ft 0kts
14-Apr-19 14:57 34.210739 -118.357947 257 758ft 0kts
14-Apr-19 14:58 34.210739 -118.357947 257 758ft 0kts
14-Apr-19 14:59 34.210739 -118.357947 257 758ft 0kts
14-Apr-19 15:00 34.210739 -118.357947 257 758ft 0kts
14-Apr-19 15:01 34.210739 -118.357947 257 758ft 0kts
14-Apr-19 15:02 34.210739 -118.357947 257 758ft 0kts
14-Apr-19 15:03 34.210739 -118.357947 257 758ft 0kts
14-Apr-19 15:04 34.210739 -118.357947 257 758ft 0kts
14-Apr-19 15:05 34.210739 -118.357947 257 758ft 0kts
14-Apr-19 15:06 34.210739 -118.357947 257 758ft 0kts
14-Apr-19 15:07 34.210739 -118.357947 257 758ft 0kts
14-Apr-19 15:08 34.210739 -118.357947 257 758ft 0kts
14-Apr-19 15:09 34.210739 -118.357947 257 758ft 0kts
14-Apr-19 15:10 34.210739 -118.357947 257 758ft 0kts
14-Apr-19 15:11 34.210739 -118.357947 257 758ft 0kts
14-Apr-19 15:12 34.210739 -118.357947 257 758ft 0kts
14-Apr-19 15:13 34.210739 -118.357947 257 758ft 0kts
14-Apr-19 15:14 34.210739 -118.357947 257 758ft 0kts
14-Apr-19 15:15 34.210739 -118.357947 257 758ft 0kts
14-Apr-19 15:16 34.210739 -118.357947 257 758ft 0kts
14-Apr-19 15:17 34.210739 -118.357947 257 758ft 0kts
14-Apr-19 15:18 34.210739 -118.357947 257 758ft 0kts
14-Apr-19 15:19 34.210736 -118.357969 261 758ft 3kts
14-Apr-19 15:20 34.211730 -118.359091 306 763ft 0kts
14-Apr-19 15:20 34.211324 -118.360171 169 765ft 20kts
14-Apr-19 15:22 34.189191 -118.359692 224 1456ft 72kts
14-Apr-19 15:23 34.175527 -118.376766 227 2232ft 71kts
14-Apr-19 15:23 34.168719 -118.392917 301 2856ft 70kts
14-Apr-19 15:25 34.182388 -118.415295 306 3720ft 71kts
14-Apr-19 15:25 34.191736 -118.431603 305 4313ft 71kts
14-Apr-19 15:26 34.202634 -118.451370 304 5002ft 71kts
14-Apr-19 15:27 34.213363 -118.471220 304 5661ft 70kts
14-Apr-19 15:28 34.222466 -118.491826 276 6284ft 70kts
14-Apr-19 15:30 34.223508 -118.519185 272 6971ft 70kts
14-Apr-19 15:30 34.223809 -118.538691 272 7436ft 69kts
14-Apr-19 15:31 34.224377 -118.562144 270 7964ft 70kts
14-Apr-19 15:32 34.237501 -118.576858 334 8464ft 69kts
14-Apr-19 15:33 34.254813 -118.586949 337 8940ft 69kts
14-Apr-19 15:34 34.277224 -118.598750 338 9002ft 103kts
14-Apr-19 15:35 34.304757 -118.609425 22 9003ft 106kts
14-Apr-19 15:36 34.323809 -118.582142 55 8999ft 107kts
14-Apr-19 15:37 34.339697 -118.551411 58 8999ft 107kts
14-Apr-19 15:38 34.354754 -118.519991 60 9000ft 107kts
14-Apr-19 15:39 34.369624 -118.488447 60 9000ft 107kts
14-Apr-19 15:40 34.385077 -118.457411 51 9000ft 107kts
14-Apr-19 15:41 34.403130 -118.428500 53 9000ft 107kts
14-Apr-19 15:42 34.420254 -118.398646 56 9000ft 107kts
14-Apr-19 15:43 34.436363 -118.367930 58 9000ft 108kts
14-Apr-19 15:44 34.453562 -118.338613 41 9000ft 107kts
14-Apr-19 15:45 34.474219 -118.312486 48 9018ft 107kts
14-Apr-19 15:46 34.493129 -118.284385 51 9018ft 108kts
14-Apr-19 15:47 34.511533 -118.255615 51 9018ft 108kts
14-Apr-19 15:48 34.529703 -118.226684 52 9018ft 108kts
14-Apr-19 15:49 34.547810 -118.197732 52 9018ft 107kts
14-Apr-19 15:50 34.565929 -118.168735 52 9018ft 108kts
14-Apr-19 15:52 34.587085 -118.134843 52 9018ft 108kts
14-Apr-19 15:52 34.602187 -118.110617 52 9018ft 108kts
14-Apr-19 15:53 34.619903 -118.081396 55 9017ft 107kts
14-Apr-19 15:54 34.631246 -118.048499 81 9017ft 107kts
14-Apr-19 15:55 34.635746 -118.012548 82 9017ft 107kts
14-Apr-19 15:56 34.639848 -117.976564 83 9017ft 107kts
14-Apr-19 15:57 34.643836 -117.940519 83 9017ft 107kts
14-Apr-19 15:58 34.647774 -117.904524 83 9017ft 107kts
14-Apr-19 15:59 34.651718 -117.868406 83 9017ft 107kts
14-Apr-19 16:00 34.655630 -117.832404 83 9017ft 107kts
14-Apr-19 16:01 34.659540 -117.796276 83 9017ft 107kts
14-Apr-19 16:02 34.664235 -117.760441 74 9016ft 107kts
14-Apr-19 16:03 34.672898 -117.725574 73 9017ft 107kts
14-Apr-19 16:04 34.681899 -117.690888 73 9017ft 107kts
14-Apr-19 16:05 34.690707 -117.656015 73 9017ft 107kts
14-Apr-19 16:06 34.699567 -117.621271 73 9017ft 107kts
14-Apr-19 16:07 34.708444 -117.586536 73 9017ft 107kts
14-Apr-19 16:08 34.717356 -117.551648 73 9017ft 107kts
14-Apr-19 16:09 34.726222 -117.516871 73 9016ft 107kts
14-Apr-19 16:10 34.735096 -117.482093 73 9017ft 107kts
14-Apr-19 16:11 34.743935 -117.447354 73 9017ft 107kts
14-Apr-19 16:12 34.752775 -117.412571 73 9017ft 107kts
14-Apr-19 16:13 34.761620 -117.377725 73 9017ft 107kts
14-Apr-19 16:14 34.770453 -117.342881 73 9017ft 107kts
14-Apr-19 16:15 34.779285 -117.307996 73 9017ft 107kts
14-Apr-19 16:16 34.788091 -117.273166 73 9017ft 107kts
14-Apr-19 16:17 34.796889 -117.238322 73 9017ft 107kts
14-Apr-19 16:18 34.805703 -117.203363 73 9017ft 107kts
14-Apr-19 16:19 34.814482 -117.168498 73 9017ft 107kts
14-Apr-19 16:20 34.823244 -117.133655 73 9017ft 108kts
14-Apr-19 16:21 34.831829 -117.098664 73 9017ft 108kts
14-Apr-19 16:22 34.840712 -117.063812 73 9017ft 108kts
14-Apr-19 16:23 34.849489 -117.028935 73 9017ft 108kts
14-Apr-19 16:24 34.858251 -116.993947 73 9017ft 108kts
14-Apr-19 16:25 34.866978 -116.959021 73 9017ft 108kts
14-Apr-19 16:26 34.875700 -116.924058 73 9021ft 107kts
14-Apr-19 16:27 34.884487 -116.888667 73 9043ft 100kts
14-Apr-19 16:28 34.892249 -116.858101 73 9423ft 92kts
14-Apr-19 16:29 34.899724 -116.828363 73 9772ft 91kts
14-Apr-19 16:30 34.907117 -116.798725 73 10105ft 91kts
14-Apr-19 16:31 34.914453 -116.769186 73 10419ft 90kts
14-Apr-19 16:32 34.921705 -116.739903 73 10711ft 90kts
14-Apr-19 16:33 34.929020 -116.710333 73 10937ft 96kts
14-Apr-19 16:34 34.937172 -116.676921 74 10935ft 105kts
14-Apr-19 16:35 34.945277 -116.642781 74 10935ft 106kts
14-Apr-19 16:36 34.953825 -116.608342 73 10935ft 106kts
14-Apr-19 16:37 34.964110 -116.574896 57 10934ft 106kts
14-Apr-19 16:38 34.978713 -116.543880 63 10935ft 106kts
14-Apr-19 16:39 34.992471 -116.512011 62 10935ft 106kts
14-Apr-19 16:40 35.006393 -116.480312 62 10935ft 106kts
14-Apr-19 16:41 35.020399 -116.448552 62 10935ft 106kts
14-Apr-19 16:42 35.034353 -116.416931 62 10935ft 106kts
14-Apr-19 16:43 35.048358 -116.385178 62 10935ft 106kts
14-Apr-19 16:44 35.062551 -116.352903 62 10816ft 112kts
14-Apr-19 16:45 35.077347 -116.319191 62 10627ft 112kts
14-Apr-19 16:46 35.092169 -116.285452 62 10443ft 112kts
14-Apr-19 16:47 35.106870 -116.251972 62 10267ft 112kts
14-Apr-19 16:48 35.121672 -116.218234 62 10093ft 112kts
14-Apr-19 16:49 35.136440 -116.184548 62 9938ft 111kts
14-Apr-19 16:50 35.150718 -116.152051 62 9934ft 107kts
14-Apr-19 16:51 35.164854 -116.119792 62 9935ft 107kts
14-Apr-19 16:52 35.178923 -116.087632 62 9935ft 107kts
14-Apr-19 16:53 35.192981 -116.055457 62 9935ft 107kts
14-Apr-19 16:54 35.207017 -116.023299 62 9935ft 107kts
14-Apr-19 16:55 35.221044 -115.991131 62 9935ft 107kts
14-Apr-19 16:56 35.235044 -115.958993 62 9935ft 107kts
14-Apr-19 16:57 35.249075 -115.926755 62 9935ft 107kts
14-Apr-19 16:58 35.263110 -115.894475 62 9935ft 107kts
14-Apr-19 16:59 35.277076 -115.862323 62 9935ft 107kts
14-Apr-19 17:00 35.291084 -115.830044 62 9935ft 107kts
14-Apr-19 17:01 35.305109 -115.797696 62 9935ft 107kts
14-Apr-19 17:02 35.323161 -115.768874 48 9935ft 107kts
14-Apr-19 17:03 35.343241 -115.741781 48 9935ft 107kts
14-Apr-19 17:04 35.362240 -115.716529 47 10181ft 96kts
14-Apr-19 17:05 35.381663 -115.690584 48 10182ft 106kts
14-Apr-19 17:06 35.401712 -115.663766 48 10182ft 107kts
14-Apr-19 17:07 35.421866 -115.636839 48 10182ft 107kts
14-Apr-19 17:08 35.442013 -115.609919 48 10182ft 107kts
14-Apr-19 17:09 35.462189 -115.582945 48 10182ft 107kts
14-Apr-19 17:10 35.482339 -115.555984 48 10182ft 107kts
14-Apr-19 17:11 35.502428 -115.529085 48 10182ft 107kts
14-Apr-19 17:12 35.522560 -115.502106 48 10182ft 107kts
14-Apr-19 17:13 35.542748 -115.475029 48 10182ft 107kts
14-Apr-19 17:14 35.562862 -115.448032 48 10182ft 107kts
14-Apr-19 17:15 35.583194 -115.420690 48 10096ft 111kts
14-Apr-19 17:16 35.604339 -115.392168 48 9861ft 117kts
14-Apr-19 17:17 35.626730 -115.362072 47 9420ft 120kts
14-Apr-19 17:18 35.649565 -115.332283 46 8995ft 119kts
14-Apr-19 17:19 35.672433 -115.301957 47 8479ft 123kts
14-Apr-19 17:20 35.695491 -115.270789 47 7898ft 123kts
14-Apr-19 17:21 35.718594 -115.239553 47 7326ft 123kts
14-Apr-19 17:22 35.740651 -115.210427 46 7181ft 110kts
14-Apr-19 17:23 35.761196 -115.182578 47 7183ft 109kts
14-Apr-19 17:24 35.788226 -115.168033 11 7183ft 109kts
14-Apr-19 17:25 35.818178 -115.160363 11 7183ft 109kts
14-Apr-19 17:26 35.848035 -115.152665 11 7183ft 109kts
14-Apr-19 17:27 35.877827 -115.144826 13 7182ft 109kts
14-Apr-19 17:28 35.907073 -115.134403 24 7123ft 114kts
14-Apr-19 17:29 35.937639 -115.118003 22 6621ft 121kts
14-Apr-19 17:30 35.968447 -115.101368 24 6138ft 121kts
14-Apr-19 17:31 35.999494 -115.084391 24 5680ft 114kts
14-Apr-19 17:32 36.027858 -115.069090 24 5654ft 113kts
14-Apr-19 17:33 36.058280 -115.052438 24 5141ft 121kts
14-Apr-19 17:34 36.089048 -115.035515 25 4646ft 121kts
14-Apr-19 17:35 36.114971 -115.046745 282 4381ft 118kts
14-Apr-19 17:36 36.116658 -115.083697 274 4283ft 104kts
14-Apr-19 17:37 36.103894 -115.116370 284 3079ft 117kts
14-Apr-19 17:38 36.114776 -115.148075 258 2982ft 86kts
14-Apr-19 17:39 36.094200 -115.159492 209 2121ft 74kts
14-Apr-19 17:40 36.088568 -115.161541 111 2125ft 0kts
14-Apr-19 17:41 36.087551 -115.154312 95 2102ft 26kts
14-Apr-19 17:42 36.088021 -115.152726 62 2095ft 0kts
14-Apr-19 17:44 36.088021 -115.152726 62 2095ft 0kts
14-Apr-19 17:45 36.088020 -115.152727 62 2095ft 0kts

Navigation Log

Ident Type
Flight plan parsing failed, navigation log unavailable